createdAt,value
2023-03-05T00:01:19.315Z,101118.41
2023-03-05T00:03:45.544Z,101115.84
2023-03-05T00:06:15.722Z,101110.72
2023-03-05T00:08:41.942Z,101116.72
2023-03-05T00:11:08.123Z,101110.72
2023-03-05T00:13:35.491Z,101112.47
2023-03-05T00:16:01.769Z,101110.69
2023-03-05T00:18:27.960Z,101107.28
2023-03-05T00:21:00.180Z,101107.25
2023-03-05T00:23:27.446Z,101103.78
2023-03-05T00:25:53.721Z,101103.78
2023-03-05T00:28:19.877Z,101105.44
2023-03-05T00:30:48.489Z,101111.50
2023-03-05T00:33:14.630Z,101104.59
2023-03-05T00:35:40.822Z,101099.50
2023-03-05T00:38:08.563Z,101103.88
2023-03-05T00:40:36.032Z,101095.31
2023-03-05T00:43:02.246Z,101102.22
2023-03-05T00:45:29.871Z,101103.06
2023-03-05T00:47:56.060Z,101096.19
2023-03-05T00:50:22.193Z,101099.69
2023-03-05T00:52:48.337Z,101093.63
2023-03-05T00:55:14.470Z,101092.84
2023-03-05T00:57:40.634Z,101083.41
2023-03-05T01:00:08.019Z,101087.75
2023-03-05T01:02:34.902Z,101083.47
2023-03-05T01:05:08.633Z,101083.50
2023-03-05T01:07:34.871Z,101083.53
2023-03-05T01:10:01.075Z,101078.38
2023-03-05T01:12:31.636Z,101074.94
2023-03-05T01:14:57.827Z,101068.94
2023-03-05T01:17:24.009Z,101073.22
2023-03-05T01:19:52.524Z,101074.06
2023-03-05T01:22:18.729Z,101061.19
2023-03-05T01:24:53.348Z,101059.50
2023-03-05T01:27:19.533Z,101066.34
2023-03-05T01:29:45.714Z,101056.06
2023-03-05T01:32:13.048Z,101045.75
2023-03-05T01:34:39.384Z,101046.63
2023-03-05T01:37:05.580Z,101049.22
2023-03-05T01:39:33.850Z,101038.06
2023-03-05T01:42:00.043Z,101043.22
2023-03-05T01:44:31.259Z,101042.34
2023-03-05T01:46:57.418Z,101038.06
2023-03-05T01:49:23.609Z,101044.16
2023-03-05T01:51:49.760Z,101032.97
2023-03-05T01:54:15.919Z,101037.28
2023-03-05T01:56:42.044Z,101033.03
2023-03-05T01:59:08.155Z,101033.88
2023-03-05T02:01:34.389Z,101044.19
2023-03-05T02:04:00.639Z,101030.47
2023-03-05T02:06:26.789Z,101033.09
2023-03-05T02:08:52.982Z,101032.22
2023-03-05T02:11:19.125Z,101027.94
2023-03-05T02:13:49.778Z,101032.25
2023-03-05T02:16:15.939Z,101031.41
2023-03-05T02:18:45.129Z,101029.69
2023-03-05T02:21:11.265Z,101018.50
2023-03-05T02:23:37.430Z,101017.69
2023-03-05T02:26:03.613Z,101023.69
2023-03-05T02:28:32.787Z,101016.84
2023-03-05T02:30:58.933Z,101010.84
2023-03-05T02:33:25.095Z,101015.16
2023-03-05T02:36:13.711Z,101010.00
2023-03-05T02:38:37.964Z,101004.91
2023-03-05T02:41:07.612Z,101008.34
2023-03-05T02:43:33.814Z,101007.50
2023-03-05T02:45:59.990Z,101007.50
2023-03-05T02:48:26.145Z,101003.22
2023-03-05T02:50:52.319Z,100996.38
2023-03-05T02:53:18.474Z,100998.97
2023-03-05T02:55:44.630Z,100998.06
2023-03-05T02:58:10.817Z,100998.09
2023-03-05T03:00:39.781Z,100992.91
2023-03-05T03:03:07.166Z,100988.66
2023-03-05T03:05:33.852Z,100989.47
2023-03-05T03:08:00.041Z,100980.91
2023-03-05T03:10:26.354Z,100976.63
2023-03-05T03:13:14.928Z,100978.34
2023-03-05T03:15:39.230Z,100974.06
2023-03-05T03:18:06.995Z,100966.28
2023-03-05T03:20:33.206Z,100962.88
2023-03-05T03:22:59.505Z,100962.03
2023-03-05T03:25:25.685Z,100955.19
2023-03-05T03:27:51.866Z,100962.09
2023-03-05T03:30:23.262Z,100960.44
2023-03-05T03:32:49.464Z,100963.03
2023-03-05T03:35:15.591Z,100958.69
2023-03-05T03:37:41.799Z,100951.84
2023-03-05T03:40:07.980Z,100953.59
2023-03-05T03:42:35.409Z,100953.59
2023-03-05T03:45:01.586Z,100946.72
2023-03-05T03:47:27.758Z,100949.31
2023-03-05T03:49:53.969Z,100963.06
2023-03-05T03:52:20.152Z,100952.72
2023-03-05T03:54:46.314Z,100949.28
2023-03-05T03:57:13.964Z,100938.97
2023-03-05T03:59:40.117Z,100943.25
2023-03-05T04:02:06.415Z,100948.41
2023-03-05T04:04:34.084Z,100945.78
2023-03-05T04:07:00.269Z,100936.34
2023-03-05T04:09:26.446Z,100936.28
2023-03-05T04:11:52.619Z,100931.09
2023-03-05T04:14:29.374Z,100931.09
2023-03-05T04:16:55.536Z,100922.47
2023-03-05T04:19:21.730Z,100928.53
2023-03-05T04:21:52.093Z,100926.00
2023-03-05T04:24:18.288Z,100925.91
2023-03-05T04:26:48.917Z,100930.25
2023-03-05T04:29:15.045Z,100925.06
2023-03-05T04:31:41.257Z,100916.53
2023-03-05T04:34:07.408Z,100919.16
2023-03-05T04:36:35.503Z,100918.28
2023-03-05T04:39:01.694Z,100910.53
2023-03-05T04:41:27.860Z,100918.38
2023-03-05T04:43:58.235Z,100915.78
2023-03-05T04:46:24.414Z,100920.97
2023-03-05T04:48:50.647Z,100915.00
2023-03-05T04:51:17.999Z,100917.59
2023-03-05T04:53:54.393Z,100914.16
2023-03-05T04:56:20.536Z,100918.44
2023-03-05T04:58:46.688Z,100915.88
2023-03-05T05:01:15.728Z,100914.16
2023-03-05T05:03:41.917Z,100917.56
2023-03-05T05:06:09.480Z,100908.13
2023-03-05T05:08:36.817Z,100911.53
2023-03-05T05:11:02.983Z,100911.50
2023-03-05T05:13:30.633Z,100908.88
2023-03-05T05:15:57.974Z,100904.53
2023-03-05T05:18:24.114Z,100906.22
2023-03-05T05:20:50.242Z,100901.06
2023-03-05T05:23:16.435Z,100902.81
2023-03-05T05:25:42.602Z,100901.91
2023-03-05T05:28:08.773Z,100901.94
2023-03-05T05:30:34.921Z,100902.81
2023-03-05T05:33:01.095Z,100906.28
2023-03-05T05:35:27.341Z,100901.06
2023-03-05T05:37:53.534Z,100896.84
2023-03-05T05:40:20.873Z,100897.69
2023-03-05T05:42:47.030Z,100895.13
2023-03-05T05:45:13.276Z,100899.44
2023-03-05T05:47:39.558Z,100899.44
2023-03-05T05:50:05.783Z,100903.75
2023-03-05T05:52:31.912Z,100902.84
2023-03-05T05:55:02.303Z,100897.72
2023-03-05T05:57:28.498Z,100895.09
2023-03-05T05:59:54.621Z,100891.69
2023-03-05T06:02:20.814Z,100890.81
2023-03-05T06:04:53.539Z,100889.94
2023-03-05T06:07:19.662Z,100890.78
2023-03-05T06:09:45.786Z,100884.81
2023-03-05T06:12:22.271Z,100887.38
2023-03-05T06:14:48.408Z,100890.81
2023-03-05T06:17:21.894Z,100898.53
2023-03-05T06:19:55.473Z,100894.25
2023-03-05T06:22:21.672Z,100886.47
2023-03-05T06:24:47.793Z,100887.34
2023-03-05T06:27:13.960Z,100892.44
2023-03-05T06:29:40.117Z,100891.56
2023-03-05T06:32:06.291Z,100884.69
2023-03-05T06:34:32.456Z,100888.97
2023-03-05T06:36:58.589Z,100884.66
